Time;durP1;ratioP1;P1;durP2;ratioP2;P2;SDS_P1;SDS_P2;PMS_P1;PMS_P2;Temp;Humidity;BMP_temperature;BMP_pressure;BME280_temperature;BME280_humidity;BME280_pressure;Samples;Min_cycle;Max_cycle;Signal;HPM_P1;HPM_P2
2022/10/17 00:00:21;;;;;;;;;6.25;6.25;;;;;14.57;76.43;100049.16;5094779;28;8838;-59
2022/10/17 00:02:48;;;;;;;;;6.75;6.50;;;;;14.59;76.04;100055.22;5094576;28;8918;-60
2022/10/17 00:05:16;;;;;;;;;8.50;6.25;;;;;14.62;75.78;100052.25;5094946;28;8841;-59
2022/10/17 00:07:44;;;;;;;;;3.50;3.25;;;;;14.64;76.24;100052.97;5094947;28;8825;-59
2022/10/17 00:10:11;;;;;;;;;8.50;7.00;;;;;14.65;76.15;100060.84;5094565;28;8914;-60
2022/10/17 00:12:39;;;;;;;;;6.00;6.00;;;;;14.66;75.83;100053.66;5094140;28;8845;-60
2022/10/17 00:15:07;;;;;;;;;6.75;6.25;;;;;14.64;75.83;100052.97;5094540;28;8826;-60
2022/10/17 00:17:37;;;;;;;;;2.50;2.50;;;;;14.61;76.29;100055.91;5094508;28;8838;-60
2022/10/17 00:20:04;;;;;;;;;4.00;3.50;;;;;14.58;76.55;100056.22;5094256;28;8814;-60
2022/10/17 00:22:32;;;;;;;;;7.50;7.00;;;;;14.55;75.81;100053.81;5098204;28;9511;-60
2022/10/17 00:25:00;;;;;;;;;4.50;4.50;;;;;14.51;76.67;100052.41;5098831;28;8834;-61
2022/10/17 00:27:27;;;;;;;;;5.00;5.00;;;;;14.49;76.82;100054.41;5098084;28;8814;-60
2022/10/17 00:29:56;;;;;;;;;7.00;6.00;;;;;14.46;76.51;100049.31;5098721;28;8841;-60
2022/10/17 00:32:23;;;;;;;;;3.25;3.25;;;;;14.44;77.00;100054.84;5098498;28;8853;-60
2022/10/17 00:34:52;;;;;;;;;6.00;6.00;;;;;14.43;76.96;100063.84;5098374;28;8819;-60
2022/10/17 00:37:20;;;;;;;;;7.00;5.50;;;;;14.42;76.85;100070.19;5098215;28;8826;-59
2022/10/17 00:39:47;;;;;;;;;8.00;7.00;;;;;14.44;77.15;100046.81;5098304;28;8845;-60
2022/10/17 00:42:15;;;;;;;;;6.00;6.00;;;;;14.49;76.45;100057.09;5098180;28;8834;-61
2022/10/17 00:44:46;;;;;;;;;7.00;7.00;;;;;14.54;76.78;100052.13;5098101;28;8911;-60
2022/10/17 00:47:13;;;;;;;;;9.50;9.00;;;;;14.69;76.05;100056.91;5097945;28;8830;-60
2022/10/17 00:49:41;;;;;;;;;9.25;7.00;;;;;14.89;75.55;100046.94;5098630;28;8906;-60
2022/10/17 00:52:09;;;;;;;;;7.00;7.00;;;;;15.08;75.09;100046.84;5098289;28;8838;-60
2022/10/17 00:54:37;;;;;;;;;7.00;7.00;;;;;15.26;74.75;100045.91;5098126;28;9564;-60
2022/10/17 00:57:05;;;;;;;;;9.75;9.00;;;;;15.45;74.30;100039.63;5097350;28;8822;-59
2022/10/17 00:59:32;;;;;;;;;8.80;8.80;;;;;15.64;74.02;100047.59;5097418;28;8814;-61
2022/10/17 01:02:00;;;;;;;;;6.40;6.40;;;;;15.79;73.99;100033.47;5097755;28;8826;-60
2022/10/17 01:04:27;;;;;;;;;6.80;4.40;;;;;15.88;73.89;100042.47;5097763;28;8838;-60
2022/10/17 01:06:55;;;;;;;;;6.60;6.20;;;;;15.98;73.65;100040.53;5098183;28;8826;-60
2022/10/17 01:09:23;;;;;;;;;6.00;5.60;;;;;16.05;73.54;100044.28;5098117;28;9495;-60
2022/10/17 01:11:50;;;;;;;;;7.00;6.20;;;;;16.11;73.47;100049.06;5098178;28;8845;-62
2022/10/17 01:14:18;;;;;;;;;7.80;7.80;;;;;16.19;73.76;100044.63;5098014;28;8919;-60
2022/10/17 01:16:47;;;;;;;;;6.00;6.00;;;;;16.25;73.60;100034.06;5098004;28;8846;-60
2022/10/17 01:19:15;;;;;;;;;6.40;6.00;;;;;16.30;73.61;100042.53;5097837;28;8826;-60
2022/10/17 01:21:43;;;;;;;;;6.60;5.60;;;;;16.38;73.63;100038.25;5098111;28;8826;-60
2022/10/17 01:24:11;;;;;;;;;6.40;6.40;;;;;16.47;72.95;100033.59;5098574;28;8818;-61
2022/10/17 01:26:38;;;;;;;;;3.00;3.00;;;;;16.67;73.33;100037.78;5098459;28;8854;-60
2022/10/17 01:29:06;;;;;;;;;6.20;6.00;;;;;16.78;72.91;100021.38;5097287;28;9064;-60
2022/10/17 01:31:34;;;;;;;;;7.00;7.00;;;;;16.89;72.59;100026.50;5097871;28;8795;-60
2022/10/17 01:34:01;;;;;;;;;4.00;4.00;;;;;16.98;72.39;100022.84;5097214;28;8834;-60
2022/10/17 01:36:29;;;;;;;;;6.80;6.80;;;;;17.11;72.63;100027.78;5098034;28;8818;-60
2022/10/17 01:38:56;;;;;;;;;6.80;6.20;;;;;17.20;72.84;100019.59;5097895;28;8830;-61
2022/10/17 01:41:24;;;;;;;;;6.80;6.80;;;;;17.29;72.49;100024.00;5098015;28;8850;-60
2022/10/17 01:43:52;;;;;;;;;6.00;4.00;;;;;17.35;72.09;100026.03;5098455;28;8897;-61
2022/10/17 01:46:20;;;;;;;;;6.40;6.00;;;;;17.44;72.39;100022.38;5097808;28;8842;-60
2022/10/17 01:48:47;;;;;;;;;6.60;6.00;;;;;17.48;72.22;100029.13;5097968;28;8903;-61
2022/10/17 01:51:15;;;;;;;;;8.60;8.60;;;;;17.47;72.67;100027.44;5097950;28;8834;-61
2022/10/17 01:53:43;;;;;;;;;4.40;4.40;;;;;17.52;72.91;100030.50;5097741;28;8911;-60
2022/10/17 01:56:11;;;;;;;;;6.80;6.80;;;;;17.58;72.09;100029.84;5097457;28;8826;-60
2022/10/17 01:58:38;;;;;;;;;9.00;8.60;;;;;17.65;72.32;100021.94;5097496;28;8834;-62
2022/10/17 02:01:06;;;;;;;;;6.60;6.60;;;;;17.68;72.14;100024.31;5098062;28;8834;-60
2022/10/17 02:03:34;;;;;;;;;5.60;5.60;;;;;17.71;72.26;100014.06;5097494;28;8830;-60
2022/10/17 02:06:01;;;;;;;;;9.40;9.40;;;;;17.70;72.61;100017.72;5097658;28;8834;-60
2022/10/17 02:08:29;;;;;;;;;6.60;6.60;;;;;17.72;72.63;100021.13;5098066;28;8894;-61
2022/10/17 02:10:57;;;;;;;;;6.60;6.40;;;;;17.74;72.51;100010.16;5097435;28;8927;-61
2022/10/17 02:13:24;;;;;;;;;5.20;4.80;;;;;17.78;72.26;100006.97;5097477;28;8818;-61
2022/10/17 02:15:52;;;;;;;;;7.40;7.00;;;;;17.78;72.18;100000.75;5097318;28;8932;-60
2022/10/17 02:18:20;;;;;;;;;4.40;4.40;;;;;17.78;72.72;99998.88;5097422;28;8902;-62
2022/10/17 02:20:48;;;;;;;;;6.00;6.00;;;;;17.83;72.46;100001.13;5097030;28;9508;-60
2022/10/17 02:23:16;;;;;;;;;4.00;4.00;;;;;17.88;72.54;100001.44;5097208;28;8806;-60
2022/10/17 02:25:46;;;;;;;;;9.20;7.00;;;;;17.90;72.68;100002.97;5096712;28;8903;-60
2022/10/17 02:28:14;;;;;;;;;8.60;7.00;;;;;17.95;72.45;99997.91;5096701;28;8814;-60
2022/10/17 02:30:42;;;;;;;;;8.40;7.40;;;;;17.95;72.80;100003.31;5096779;28;8818;-60
2022/10/17 02:33:10;;;;;;;;;6.40;6.00;;;;;17.95;72.56;99995.22;5097179;28;8899;-60
2022/10/17 02:35:37;;;;;;;;;6.00;6.00;;;;;17.97;72.66;99995.88;5097012;28;8907;-60
2022/10/17 02:38:05;;;;;;;;;8.60;7.00;;;;;17.99;72.77;99999.25;5097231;28;8907;-60
2022/10/17 02:40:32;;;;;;;;;7.00;6.60;;;;;18.02;73.12;99998.09;5097122;28;8907;-60
2022/10/17 02:43:00;;;;;;;;;4.80;4.80;;;;;18.05;72.68;100003.13;5097232;28;8907;-60
2022/10/17 02:45:28;;;;;;;;;7.80;7.00;;;;;18.05;72.82;100001.28;5095868;28;9184;-60
2022/10/17 02:47:56;;;;;;;;;9.20;7.80;;;;;18.05;72.91;100001.28;5097234;28;8834;-60
2022/10/17 02:50:24;;;;;;;;;8.20;7.00;;;;;18.06;73.01;100000.28;5096666;28;8822;-60
2022/10/17 02:52:51;;;;;;;;;9.00;9.00;;;;;18.06;73.41;99996.75;5096827;28;8840;-60
2022/10/17 02:55:19;;;;;;;;;4.00;4.00;;;;;18.07;73.05;100004.66;5096578;28;9584;-60
2022/10/17 02:57:47;;;;;;;;;6.00;6.00;;;;;18.07;73.42;100001.94;5096142;28;8902;-61
2022/10/17 03:00:14;;;;;;;;;6.00;6.00;;;;;18.08;73.56;99992.03;5096349;28;8798;-61
2022/10/17 03:02:42;;;;;;;;;6.80;6.60;;;;;18.10;73.20;99998.94;5096581;28;8960;-60
2022/10/17 03:05:09;;;;;;;;;6.00;6.00;;;;;18.13;73.11;99987.81;5096138;28;8830;-60
2022/10/17 03:07:38;;;;;;;;;6.60;6.60;;;;;18.16;73.66;99987.47;5096568;28;8826;-60
2022/10/17 03:10:06;;;;;;;;;7.00;7.00;;;;;18.16;72.90;99990.19;5096250;28;8834;-60
2022/10/17 03:12:34;;;;;;;;;9.00;7.00;;;;;18.15;73.07;100007.34;5096477;28;8931;-60
2022/10/17 03:15:01;;;;;;;;;6.00;6.00;;;;;18.14;73.27;99999.44;5096532;28;8821;-60
2022/10/17 03:17:29;;;;;;;;;6.00;6.00;;;;;18.10;73.69;100007.03;5096776;28;8866;-60
2022/10/17 03:19:57;;;;;;;;;7.00;6.40;;;;;18.10;73.97;100000.78;5096093;28;8841;-60
2022/10/17 03:22:25;;;;;;;;;7.00;6.00;;;;;18.06;73.76;100002.97;5096067;28;8830;-60
2022/10/17 03:24:53;;;;;;;;;6.00;6.00;;;;;18.06;73.63;100002.97;5095749;28;9523;-60
2022/10/17 03:27:20;;;;;;;;;3.60;3.60;;;;;18.06;73.92;100007.53;5095997;28;9477;-60
2022/10/17 03:29:48;;;;;;;;;9.00;8.20;;;;;18.08;74.22;100014.41;5095314;28;8825;-60
2022/10/17 03:32:16;;;;;;;;;7.40;7.00;;;;;18.11;74.04;99999.75;5095654;28;8838;-60
2022/10/17 03:34:43;;;;;;;;;7.80;7.80;;;;;18.12;73.67;100005.00;5095663;28;8838;-60
2022/10/17 03:37:11;;;;;;;;;7.40;6.00;;;;;18.15;73.99;100011.91;5095823;28;8919;-60
2022/10/17 03:39:39;;;;;;;;;6.40;5.60;;;;;18.19;73.68;99997.91;5096243;28;8821;-60
2022/10/17 03:42:06;;;;;;;;;6.20;6.20;;;;;18.19;73.38;99997.91;5095370;28;8822;-60
2022/10/17 03:44:34;;;;;;;;;10.00;9.60;;;;;18.21;73.96;100011.25;5096094;28;8857;-60
2022/10/17 03:47:02;;;;;;;;;6.00;5.20;;;;;18.20;73.94;100015.78;5095716;28;9604;-61
2022/10/17 03:49:29;;;;;;;;;6.60;6.40;;;;;18.21;73.85;100006.66;5096077;28;8910;-60
2022/10/17 03:51:57;;;;;;;;;8.00;8.00;;;;;18.22;73.50;100016.44;5096205;28;8830;-61
2022/10/17 03:54:25;;;;;;;;;5.40;4.40;;;;;18.23;74.01;100015.44;5095961;28;8892;-62
2022/10/17 03:56:53;;;;;;;;;7.00;6.20;;;;;18.25;73.94;100008.03;5095148;28;8818;-62
2022/10/17 03:59:21;;;;;;;;;5.20;4.80;;;;;18.24;73.55;100009.06;5095916;28;8899;-60
2022/10/17 04:01:48;;;;;;;;;3.80;3.40;;;;;18.26;73.67;100009.72;5095666;28;8810;-61
2022/10/17 04:04:16;;;;;;;;;7.40;7.00;;;;;18.28;73.75;100010.38;5094869;28;8802;-62
2022/10/17 04:06:43;;;;;;;;;6.40;6.40;;;;;18.30;73.68;100008.38;5095753;28;8891;-62
2022/10/17 04:09:11;;;;;;;;;7.40;6.80;;;;;18.29;73.57;100024.72;5095516;28;8826;-60
2022/10/17 04:11:39;;;;;;;;;4.00;4.00;;;;;18.26;73.65;100022.34;5095918;28;8838;-62
2022/10/17 04:14:07;;;;;;;;;7.00;7.00;;;;;18.26;73.86;100017.81;5095767;28;8922;-59
2022/10/17 04:16:35;;;;;;;;;9.80;9.20;;;;;18.30;73.67;100016.47;5096072;28;9516;-61
2022/10/17 04:19:02;;;;;;;;;7.40;7.40;;;;;18.33;73.47;100021.53;5095829;28;8887;-60
2022/10/17 04:21:30;;;;;;;;;6.20;6.00;;;;;18.32;74.05;100036.03;5095380;28;8939;-60
2022/10/17 04:23:58;;;;;;;;;9.00;6.20;;;;;18.31;73.47;100028.13;5095583;28;8830;-60
2022/10/17 04:26:26;;;;;;;;;7.80;7.40;;;;;18.32;73.83;100038.75;5095226;28;8833;-62
2022/10/17 04:28:53;;;;;;;;;7.80;7.00;;;;;18.32;73.78;100036.03;5095605;28;8818;-62
2022/10/17 04:31:21;;;;;;;;;9.80;9.20;;;;;18.33;73.70;100035.03;5095875;28;8838;-60
2022/10/17 04:33:48;;;;;;;;;6.80;6.20;;;;;18.31;73.68;100020.88;5095653;28;8829;-62
2022/10/17 04:36:17;;;;;;;;;4.40;4.40;;;;;18.32;73.29;100022.56;5095949;28;8810;-62
2022/10/17 04:38:44;;;;;;;;;3.60;3.20;;;;;18.31;73.80;100012.78;5095728;28;8910;-62
2022/10/17 04:41:12;;;;;;;;;7.00;6.00;;;;;18.31;73.94;100023.56;5095345;28;8826;-60
2022/10/17 04:43:39;;;;;;;;;4.00;4.00;;;;;18.35;73.85;100011.41;5095177;28;8840;-61
2022/10/17 04:46:07;;;;;;;;;6.80;6.60;;;;;18.35;73.86;100011.41;5095324;28;8854;-62
2022/10/17 04:48:35;;;;;;;;;4.00;3.40;;;;;18.35;73.72;100008.72;5095328;28;8835;-62
2022/10/17 04:51:03;;;;;;;;;4.80;4.40;;;;;18.34;73.77;100008.88;5095244;28;8826;-62
2022/10/17 04:53:30;;;;;;;;;6.00;6.00;;;;;18.33;73.82;100012.59;5095039;28;8853;-61
2022/10/17 04:55:58;;;;;;;;;7.80;7.80;;;;;18.36;73.47;99999.63;5095191;28;8815;-62
2022/10/17 04:58:27;;;;;;;;;6.00;6.00;;;;;18.42;73.61;100014.28;5094332;28;8915;-62
2022/10/17 05:00:55;;;;;;;;;3.20;1.80;;;;;18.44;73.70;100018.50;5095186;28;8814;-61
2022/10/17 05:03:23;;;;;;;;;7.00;7.00;;;;;18.48;73.99;100027.94;5094267;28;8834;-62
2022/10/17 05:05:50;;;;;;;;;7.40;7.40;;;;;18.53;73.29;100027.44;5094276;28;8912;-62
2022/10/17 05:08:18;;;;;;;;;6.40;4.80;;;;;18.54;73.50;100035.34;5095988;28;8842;-61
2022/10/17 05:10:46;;;;;;;;;9.00;6.80;;;;;18.55;73.20;100037.03;5097535;28;8907;-61
2022/10/17 05:13:14;;;;;;;;;10.20;9.00;;;;;18.56;73.37;100038.72;5097507;28;8826;-61
2022/10/17 05:15:41;;;;;;;;;6.20;4.80;;;;;18.54;73.19;100029.09;5097041;28;8845;-60
2022/10/17 05:18:09;;;;;;;;;5.20;4.80;;;;;18.50;73.35;100031.31;5096723;28;8841;-61
2022/10/17 05:20:38;;;;;;;;;6.40;6.20;;;;;18.47;73.30;100034.34;5096756;28;8981;-60
2022/10/17 05:23:05;;;;;;;;;6.00;6.00;;;;;18.46;73.92;100040.75;5096112;28;8940;-63
2022/10/17 05:25:33;;;;;;;;;9.00;9.00;;;;;18.45;73.56;100039.06;5096652;28;8838;-63
2022/10/17 05:28:00;;;;;;;;;7.00;7.00;;;;;18.44;73.46;100034.66;5095626;28;8861;-61
2022/10/17 05:30:28;;;;;;;;;5.60;5.60;;;;;18.48;73.66;100024.38;5096511;28;8911;-60
2022/10/17 05:33:03;;;;;;;;;6.20;6.20;;;;;18.51;73.70;100034.84;5096916;28;8826;-61
2022/10/17 05:35:30;;;;;;;;;5.20;5.20;;;;;18.53;73.07;100041.75;5097133;28;8825;-62
2022/10/17 05:37:59;;;;;;;;;2.20;2.20;;;;;18.55;73.37;100047.81;5095934;28;8814;-62
2022/10/17 05:40:27;;;;;;;;;6.00;6.00;;;;;18.54;73.46;100046.16;5096439;28;8927;-60
2022/10/17 05:42:54;;;;;;;;;4.80;4.80;;;;;18.55;73.25;100042.44;5095174;28;8818;-63
2022/10/17 05:45:22;;;;;;;;;4.40;4.00;;;;;18.56;73.13;100049.50;5094922;28;8834;-62
2022/10/17 05:47:49;;;;;;;;;4.40;4.00;;;;;18.55;73.44;100055.91;5094659;28;8927;-62
2022/10/17 05:50:19;;;;;;;;;6.20;6.20;;;;;18.55;73.55;100050.53;5095214;28;8849;-60
2022/10/17 05:52:47;;;;;;;;;6.60;6.60;;;;;18.59;72.95;100051.03;5095192;28;8914;-62
2022/10/17 05:55:14;;;;;;;;;7.80;7.00;;;;;18.58;73.47;100055.56;5094994;28;9499;-60
2022/10/17 05:57:42;;;;;;;;;6.40;6.00;;;;;18.59;73.13;100048.34;5094527;28;8887;-62
2022/10/17 06:00:10;;;;;;;;;4.40;4.00;;;;;18.61;73.45;100052.53;5093682;28;8822;-61
2022/10/17 06:02:38;;;;;;;;;6.00;6.00;;;;;18.59;73.17;100054.56;5094738;28;8826;-62
2022/10/17 06:05:06;;;;;;;;;9.20;9.00;;;;;18.59;73.10;100049.16;5094108;28;8852;-62
2022/10/17 06:07:33;;;;;;;;;6.80;5.60;;;;;18.64;72.82;100062.13;5094284;28;8830;-60
2022/10/17 06:10:01;;;;;;;;;6.00;5.20;;;;;18.66;72.89;100050.16;5094144;28;8842;-63
2022/10/17 06:12:29;;;;;;;;;9.20;8.40;;;;;18.70;73.16;100066.84;5094860;28;8821;-61
2022/10/17 06:14:57;;;;;;;;;9.20;9.20;;;;;18.75;72.51;100068.03;5094920;28;8830;-62
2022/10/17 06:17:25;;;;;;;;;8.20;6.60;;;;;18.77;73.01;100074.13;5094241;28;8842;-62
2022/10/17 06:19:53;;;;;;;;;7.60;7.00;;;;;18.79;72.97;100071.22;5094455;28;8826;-61
2022/10/17 06:22:20;;;;;;;;;4.80;4.80;;;;;18.80;72.95;100078.31;5094264;28;8923;-62
2022/10/17 06:24:51;;;;;;;;;6.80;6.00;;;;;18.81;72.84;100080.84;5094574;28;8814;-60
2022/10/17 06:27:19;;;;;;;;;7.60;7.40;;;;;18.83;72.75;100083.38;5094441;28;8838;-63
2022/10/17 06:29:47;;;;;;;;;5.80;5.80;;;;;18.85;72.65;100084.91;5094405;28;8834;-62
2022/10/17 06:32:14;;;;;;;;;6.80;6.60;;;;;18.92;72.29;100095.84;5095467;28;8818;-62
2022/10/17 06:34:42;;;;;;;;;4.80;4.20;;;;;18.95;72.62;100084.69;5095400;28;8829;-61
2022/10/17 06:37:10;;;;;;;;;7.40;7.40;;;;;18.99;72.17;100096.84;5095378;28;8826;-63
2022/10/17 06:39:38;;;;;;;;;4.00;4.00;;;;;19.01;72.14;100095.66;5094077;28;8902;-62
2022/10/17 06:42:05;;;;;;;;;5.60;5.60;;;;;19.03;72.41;100101.72;5094794;28;8830;-62
2022/10/17 06:44:33;;;;;;;;;3.80;3.80;;;;;19.03;72.14;100100.91;5095176;28;8849;-63
2022/10/17 06:47:01;;;;;;;;;7.40;6.40;;;;;19.04;72.52;100106.09;5094770;28;8818;-61
2022/10/17 06:49:28;;;;;;;;;6.00;6.00;;;;;19.05;71.93;100121.28;5095463;28;8845;-62
2022/10/17 06:51:56;;;;;;;;;7.00;5.60;;;;;19.07;72.03;100124.69;5093561;28;8834;-62
2022/10/17 06:54:24;;;;;;;;;8.40;7.60;;;;;19.08;72.01;100118.25;5094376;28;8857;-63
2022/10/17 06:56:51;;;;;;;;;8.40;7.00;;;;;19.10;72.40;100128.88;5095300;28;8914;-63
2022/10/17 06:59:19;;;;;;;;;10.00;10.00;;;;;19.12;71.80;100130.38;5095400;28;8818;-62
2022/10/17 07:01:47;;;;;;;;;8.40;7.00;;;;;19.14;71.42;100117.56;5095173;28;8826;-63
2022/10/17 07:04:15;;;;;;;;;6.20;6.20;;;;;19.17;71.79;100127.16;5094536;28;8841;-62
2022/10/17 07:06:43;;;;;;;;;6.20;6.20;;;;;19.19;71.99;100128.72;5094016;28;8826;-61
2022/10/17 07:09:11;;;;;;;;;6.00;6.00;;;;;19.20;71.56;100119.59;5093844;28;8838;-61
2022/10/17 07:11:39;;;;;;;;;5.20;5.20;;;;;19.22;71.49;100125.69;5093663;28;8821;-63
2022/10/17 07:14:07;;;;;;;;;7.60;7.00;;;;;19.24;71.66;100125.50;5073861;28;8854;-62
2022/10/17 07:16:35;;;;;;;;;6.80;6.80;;;;;19.26;71.79;100128.88;5074664;28;8840;-61
2022/10/17 07:19:03;;;;;;;;;7.60;7.00;;;;;19.30;71.32;100130.22;5077132;28;8828;-62
2022/10/17 07:21:30;;;;;;;;;4.60;4.60;;;;;19.32;71.18;100134.44;5087151;28;8818;-61
2022/10/17 07:24:05;;;;;;;;;6.80;6.80;;;;;19.36;71.09;100134.94;5098451;28;8833;-63
2022/10/17 07:26:34;;;;;;;;;3.20;3.20;;;;;19.40;71.25;100128.16;5093768;28;8822;-62
2022/10/17 07:29:02;;;;;;;;;7.60;7.40;;;;;19.43;71.36;100138.63;5093954;28;8861;-63
2022/10/17 07:31:30;;;;;;;;;6.60;6.20;;;;;19.47;71.24;100143.50;5093195;28;8833;-62
2022/10/17 07:33:58;;;;;;;;;7.00;7.00;;;;;19.54;70.81;100139.09;5094149;28;8830;-62
2022/10/17 07:36:25;;;;;;;;;5.40;5.00;;;;;19.57;70.86;100141.44;5094424;28;8852;-61
2022/10/17 07:38:53;;;;;;;;;4.00;4.00;;;;;19.60;70.80;100141.09;5093182;28;8826;-62
2022/10/17 07:41:21;;;;;;;;;7.20;7.20;;;;;19.68;70.16;100138.38;5092647;28;8868;-62
2022/10/17 07:43:49;;;;;;;;;3.60;3.20;;;;;19.76;70.18;100143.75;5092903;28;8899;-62
2022/10/17 07:46:16;;;;;;;;;8.60;8.60;;;;;19.85;69.95;100147.22;5092338;28;8861;-62
2022/10/17 07:48:44;;;;;;;;;7.00;4.80;;;;;19.90;70.21;100140.31;5093281;28;8818;-60
2022/10/17 07:51:14;;;;;;;;;8.80;6.20;;;;;19.95;70.27;100142.47;5092869;28;8953;-60
2022/10/17 07:53:43;;;;;;;;;6.60;6.60;;;;;19.98;69.60;100145.66;5085744;28;8834;-61
2022/10/17 07:56:15;;;;;;;;;7.00;7.00;;;;;20.04;69.49;100133.28;5093437;28;9531;-63
2022/10/17 07:58:43;;;;;;;;;4.80;4.80;;;;;20.07;69.78;100139.22;5093392;28;8818;-61
2022/10/17 08:01:13;;;;;;;;;8.80;7.00;;;;;20.11;69.19;100135.13;5092723;28;8814;-60
2022/10/17 08:03:42;;;;;;;;;6.60;5.00;;;;;20.14;69.29;100131.22;5092730;28;8865;-60
2022/10/17 08:06:10;;;;;;;;;7.00;7.00;;;;;20.16;69.47;100134.63;5091974;28;8825;-61
2022/10/17 08:08:38;;;;;;;;;7.00;5.80;;;;;20.18;69.37;100141.50;5092100;28;10031;-62
2022/10/17 08:11:06;;;;;;;;;5.80;5.80;;;;;20.20;69.23;100150.31;5092143;28;8846;-61
2022/10/17 08:13:34;;;;;;;;;8.00;7.00;;;;;20.22;69.54;100150.97;5092352;28;8822;-60
2022/10/17 08:16:02;;;;;;;;;7.40;7.00;;;;;20.23;68.93;100143.69;5092620;28;8854;-61
2022/10/17 08:18:30;;;;;;;;;5.40;5.00;;;;;20.23;69.24;100140.97;5093181;28;8834;-61
2022/10/17 08:20:57;;;;;;;;;4.20;4.20;;;;;20.23;69.01;100135.56;5092056;28;8830;-60
2022/10/17 08:23:26;;;;;;;;;4.60;4.60;;;;;20.23;68.85;100136.41;5091760;28;8862;-62
2022/10/17 08:25:54;;;;;;;;;5.40;5.00;;;;;20.26;69.26;100141.47;5093043;28;8846;-62
2022/10/17 08:28:22;;;;;;;;;7.20;7.00;;;;;20.29;68.87;100141.13;5092826;28;8829;-61
2022/10/17 08:30:50;;;;;;;;;6.20;5.40;;;;;20.34;68.49;100149.53;5092495;28;8922;-61
2022/10/17 08:33:18;;;;;;;;;5.80;3.60;;;;;20.45;68.58;100145.56;5090925;28;8864;-63
2022/10/17 08:35:46;;;;;;;;;5.00;5.00;;;;;20.56;68.35;100143.28;5091767;28;8984;-61
2022/10/17 08:38:14;;;;;;;;;7.00;5.80;;;;;20.69;68.09;100148.13;5091953;28;9572;-61
2022/10/17 08:40:46;;;;;;;;;5.40;5.00;;;;;20.80;67.60;100153.94;5091934;28;9514;-61
2022/10/17 08:43:14;;;;;;;;;5.00;5.00;;;;;20.88;67.41;100158.47;5093978;28;8818;-61
2022/10/17 08:45:42;;;;;;;;;7.00;7.00;;;;;20.93;67.17;100154.19;5095659;28;8826;-61
2022/10/17 08:48:09;;;;;;;;;7.00;5.00;;;;;20.98;67.45;100154.47;5096318;28;8833;-61
2022/10/17 08:50:37;;;;;;;;;4.60;4.60;;;;;21.01;67.04;100152.25;5095898;28;8826;-60
2022/10/17 08:53:05;;;;;;;;;5.80;5.80;;;;;21.04;67.33;100153.75;5096578;28;9817;-61
2022/10/17 08:55:34;;;;;;;;;5.00;5.00;;;;;21.10;67.00;100166.56;5096043;28;8838;-62
2022/10/17 08:58:03;;;;;;;;;5.00;5.00;;;;;21.13;67.14;100160.78;5095642;28;9654;-61
2022/10/17 09:00:31;;;;;;;;;9.60;8.60;;;;;21.17;66.65;100164.78;5094422;28;8934;-62
2022/10/17 09:02:58;;;;;;;;;5.80;5.80;;;;;21.22;66.55;100159.66;5094580;28;8829;-62
2022/10/17 09:05:27;;;;;;;;;4.80;4.80;;;;;21.27;66.24;100166.19;5094671;28;8858;-63
2022/10/17 09:07:55;;;;;;;;;7.60;7.60;;;;;21.32;66.44;100158.38;5095439;28;8847;-60
2022/10/17 09:10:22;;;;;;;;;5.80;5.00;;;;;21.38;66.48;100162.19;5094845;28;8838;-62
2022/10/17 09:12:50;;;;;;;;;5.00;4.00;;;;;21.46;65.97;100165.69;5095361;28;8838;-61
2022/10/17 09:15:18;;;;;;;;;6.60;5.80;;;;;21.55;65.91;100169.16;5095584;28;8841;-63
2022/10/17 09:17:48;;;;;;;;;4.20;4.00;;;;;21.64;66.24;100178.88;5094876;28;8834;-60
2022/10/17 09:20:16;;;;;;;;;2.00;2.00;;;;;21.74;65.55;100168.59;5096323;28;8825;-63
2022/10/17 09:22:44;;;;;;;;;8.40;8.00;;;;;21.82;65.65;100173.94;5095750;28;8876;-63
2022/10/17 09:25:12;;;;;;;;;5.60;5.60;;;;;21.88;65.01;100173.19;5095163;28;8825;-60
2022/10/17 09:27:40;;;;;;;;;5.00;5.00;;;;;21.91;65.60;100178.22;5095675;28;8960;-62
2022/10/17 09:30:08;;;;;;;;;6.40;5.40;;;;;21.93;64.83;100176.19;5094195;28;8842;-62
2022/10/17 09:32:43;;;;;;;;;6.80;5.60;;;;;21.96;65.36;100170.38;5094158;28;9553;-62
2022/10/17 09:35:11;;;;;;;;;8.00;7.20;;;;;22.01;64.72;100170.66;5093729;28;8930;-62
2022/10/17 09:37:39;;;;;;;;;5.40;5.40;;;;;22.08;65.15;100171.59;5093823;28;8871;-63
2022/10/17 09:40:06;;;;;;;;;7.40;7.40;;;;;22.13;65.04;100172.69;5094380;28;8834;-61
2022/10/17 09:42:34;;;;;;;;;8.40;7.20;;;;;22.17;64.91;100170.44;5093619;28;8880;-61
2022/10/17 09:45:03;;;;;;;;;5.00;5.00;;;;;22.24;64.69;100174.91;5093937;28;9831;-62
2022/10/17 09:47:31;;;;;;;;;5.60;5.60;;;;;22.39;64.08;100178.41;5095358;28;8930;-62
2022/10/17 09:49:58;;;;;;;;;5.80;5.80;;;;;22.60;63.85;100186.63;5094885;28;8856;-61
2022/10/17 09:52:26;;;;;;;;;6.00;5.20;;;;;22.79;63.48;100199.59;5094757;28;8818;-62
2022/10/17 09:54:55;;;;;;;;;4.80;4.20;;;;;23.04;63.47;100208.16;5094805;28;9611;-63
2022/10/17 09:57:24;;;;;;;;;4.60;4.60;;;;;23.43;61.61;100209.38;5095327;28;8930;-63
2022/10/17 09:59:52;;;;;;;;;5.80;5.20;;;;;24.04;60.68;100210.44;5095430;28;8818;-62
2022/10/17 10:02:20;;;;;;;;;8.40;7.20;;;;;24.54;59.96;100223.63;5093942;28;8826;-62
2022/10/17 10:04:48;;;;;;;;;6.40;6.00;;;;;24.68;59.31;100223.50;5094083;28;8822;-63
2022/10/17 10:07:31;;;;;;;;;6.60;6.60;;;;;24.83;58.85;100228.78;5093774;28;8830;-62
2022/10/17 10:09:59;;;;;;;;;7.20;6.00;;;;;24.91;58.89;100231.31;5094597;28;8842;-61
2022/10/17 10:12:27;;;;;;;;;6.20;6.20;;;;;24.79;59.04;100235.69;5094551;28;8849;-63
2022/10/17 10:14:55;;;;;;;;;5.80;5.20;;;;;24.63;59.39;100239.63;5094374;28;8863;-63
2022/10/17 10:17:23;;;;;;;;;5.80;5.80;;;;;24.51;60.03;100245.84;5094250;28;8826;-61
2022/10/17 10:19:51;;;;;;;;;6.00;5.40;;;;;24.33;60.28;100256.41;5093773;28;8965;-62
2022/10/17 10:22:19;;;;;;;;;6.80;6.00;;;;;24.08;61.00;100249.81;5093615;28;8834;-62
2022/10/17 10:24:47;;;;;;;;;4.80;4.80;;;;;23.90;60.67;100253.03;5094004;28;8841;-60
2022/10/17 10:27:15;;;;;;;;;6.00;6.00;;;;;23.72;61.68;100266.28;5093820;28;8857;-61
2022/10/17 10:29:43;;;;;;;;;6.80;6.80;;;;;23.59;61.48;100279.78;5093085;28;8830;-61
2022/10/17 10:32:11;;;;;;;;;5.80;5.00;;;;;23.41;61.62;100268.56;5093679;28;8841;-61
2022/10/17 10:34:41;;;;;;;;;8.40;8.20;;;;;23.25;62.15;100267.97;5092742;28;8893;-61
2022/10/17 10:37:08;;;;;;;;;6.00;5.80;;;;;23.13;62.15;100278.50;5093067;28;8881;-60
2022/10/17 10:39:42;;;;;;;;;8.60;8.00;;;;;23.00;62.11;100277.53;5093113;28;8836;-62
2022/10/17 10:42:10;;;;;;;;;5.40;4.00;;;;;22.88;62.90;100279.06;5092985;28;8842;-60
2022/10/17 10:44:39;;;;;;;;;6.00;5.00;;;;;22.80;63.30;100288.19;5093611;28;8837;-62
2022/10/17 10:47:07;;;;;;;;;7.80;7.80;;;;;22.74;63.04;100293.50;5093631;28;9566;-61
2022/10/17 10:49:35;;;;;;;;;7.80;7.60;;;;;22.67;63.20;100298.03;5093388;28;8834;-62
2022/10/17 10:52:03;;;;;;;;;7.60;6.80;;;;;22.62;63.39;100285.03;5093093;28;8827;-60
2022/10/17 10:54:31;;;;;;;;;8.60;8.40;;;;;22.64;63.37;100290.28;5093515;28;8918;-60
2022/10/17 10:56:59;;;;;;;;;7.60;5.80;;;;;22.69;62.86;100301.41;5093277;28;8918;-60
2022/10/17 10:59:27;;;;;;;;;6.80;6.80;;;;;22.75;62.58;100306.06;5093493;28;8818;-61
2022/10/17 11:01:56;;;;;;;;;5.40;4.60;;;;;22.77;62.50;100302.13;5092827;28;8829;-62
2022/10/17 11:04:23;;;;;;;;;7.20;6.40;;;;;22.79;62.43;100302.81;5092490;28;8845;-62
2022/10/17 11:06:51;;;;;;;;;6.00;6.00;;;;;22.77;62.50;100301.31;5091632;28;8838;-62
2022/10/17 11:09:19;;;;;;;;;5.00;5.00;;;;;22.78;62.76;100305.69;5092015;28;8907;-63
2022/10/17 11:11:48;;;;;;;;;5.60;5.00;;;;;22.74;62.94;100315.25;5091963;28;8928;-61
2022/10/17 11:14:15;;;;;;;;;6.00;5.80;;;;;22.73;62.77;100324.44;5090984;28;8923;-61
2022/10/17 11:16:43;;;;;;;;;6.40;5.40;;;;;22.67;62.93;100326.03;5091601;28;8861;-62
2022/10/17 11:19:12;;;;;;;;;4.60;4.20;;;;;22.63;62.67;100329.31;5091244;28;8853;-60
2022/10/17 11:21:40;;;;;;;;;5.60;5.60;;;;;22.59;63.20;100331.56;5091125;28;8850;-61
2022/10/17 11:24:09;;;;;;;;;6.40;6.40;;;;;22.56;63.16;100328.41;5090638;28;8830;-60
2022/10/17 11:26:37;;;;;;;;;6.80;6.40;;;;;22.53;63.56;100335.03;5089514;28;8911;-60
2022/10/17 11:29:05;;;;;;;;;5.00;5.00;;;;;22.51;63.62;100336.25;5089768;28;8850;-60
2022/10/17 11:31:33;;;;;;;;;7.20;6.00;;;;;22.51;63.66;100344.41;5090284;28;9796;-60
2022/10/17 11:34:01;;;;;;;;;6.40;6.40;;;;;22.52;63.46;100348.78;5091723;28;8842;-62
2022/10/17 11:36:29;;;;;;;;;4.60;4.00;;;;;22.52;63.57;100351.50;5092484;28;8939;-63